Terminal Aerodrome Forecast
Issued by NWS Charleston, WV

Current Version | Previous Version | Text Only | Print | Product List | Glossary Off
Versions: 1 2 3 4 5 6 7 8 9 10 11 12 13 14 15 16 17 18 19 20 21 22 23

000
FTUS41 KRLX 280247 AAA
TAFHTS
TAF AMD
KHTS 280247Z 2803/2824 00000KT P6SM FEW050
     FM280700 00000KT 4SM BR SCT060
     FM281100 00000KT 2SM BR SCT050
     FM281300 00000KT P6SM SCT050
     FM282100 06005KT P6SM BKN045=

USA.gov is the U.S. government's official web portal to all federal, state and local government web resources and services.